createdAt,value
2023-04-21T00:00:15.917Z,94.10
2023-04-21T00:02:43.706Z,94.80
2023-04-21T00:05:12.716Z,96.70
2023-04-21T00:07:41.663Z,97.20
2023-04-21T00:10:11.164Z,96.60
2023-04-21T00:12:39.073Z,97.20
2023-04-21T00:15:07.379Z,96.80
2023-04-21T00:17:35.091Z,96.70
2023-04-21T00:20:03.304Z,97.10
2023-04-21T00:22:30.918Z,95.00
2023-04-21T00:24:58.974Z,94.10
2023-04-21T00:27:26.533Z,95.60
2023-04-21T00:29:54.089Z,95.80
2023-04-21T00:32:21.855Z,95.20
2023-04-21T00:34:50.690Z,95.80
2023-04-21T00:37:19.020Z,95.60
2023-04-21T00:39:46.628Z,94.70
2023-04-21T00:42:18.024Z,95.00
2023-04-21T00:44:45.784Z,93.40
2023-04-21T00:47:14.023Z,94.20
2023-04-21T00:49:43.164Z,94.50
2023-04-21T00:52:11.545Z,94.20
2023-04-21T00:54:40.260Z,91.90
2023-04-21T00:57:08.183Z,94.00
2023-04-21T00:59:36.439Z,94.00
2023-04-21T01:02:04.652Z,94.20
2023-04-21T01:04:37.307Z,94.40
2023-04-21T01:07:05.179Z,95.20
2023-04-21T01:09:33.623Z,94.50
2023-04-21T01:12:11.897Z,94.00
2023-04-21T01:14:40.842Z,94.70
2023-04-21T01:17:08.836Z,94.70
2023-04-21T01:19:41.211Z,94.30
2023-04-21T01:22:13.301Z,94.70
2023-04-21T01:24:49.279Z,95.40
2023-04-21T01:27:19.399Z,96.40
2023-04-21T01:29:51.335Z,96.80
2023-04-21T01:32:25.170Z,95.30
2023-04-21T01:34:55.496Z,95.10
2023-04-21T01:37:26.913Z,94.50
2023-04-21T01:39:58.528Z,94.70
2023-04-21T01:42:28.502Z,95.10
2023-04-21T01:44:57.463Z,94.50
2023-04-21T01:47:25.942Z,94.20
2023-04-21T01:49:53.830Z,92.70
2023-04-21T01:52:21.696Z,93.20
2023-04-21T01:54:49.470Z,93.70
2023-04-21T01:57:18.184Z,93.90
2023-04-21T01:59:46.130Z,92.70
2023-04-21T02:02:14.312Z,91.80
2023-04-21T02:04:42.130Z,90.90
2023-04-21T02:07:09.891Z,91.40
2023-04-21T02:09:37.474Z,90.70
2023-04-21T02:12:05.360Z,90.50
2023-04-21T02:14:32.956Z,91.60
2023-04-21T02:17:00.588Z,90.60
2023-04-21T02:19:29.280Z,90.50
2023-04-21T02:21:56.870Z,90.40
2023-04-21T02:24:24.512Z,90.80
2023-04-21T02:26:53.957Z,89.50
2023-04-21T02:29:22.018Z,88.60
2023-04-21T02:32:00.673Z,87.30
2023-04-21T02:34:33.214Z,84.30
2023-04-21T02:37:00.970Z,82.10
2023-04-21T02:39:28.624Z,80.30
2023-04-21T02:41:56.377Z,81.30
2023-04-21T02:44:24.008Z,82.00
2023-04-21T02:46:51.689Z,80.20
2023-04-21T02:49:19.656Z,80.90
2023-04-21T02:51:47.732Z,80.20
2023-04-21T02:54:15.431Z,79.70
2023-04-21T02:56:43.025Z,80.50
2023-04-21T02:59:11.531Z,78.60
2023-04-21T03:01:40.757Z,77.90
2023-04-21T03:04:09.358Z,78.70
2023-04-21T03:06:39.037Z,77.20
2023-04-21T03:09:06.708Z,77.40
2023-04-21T03:11:34.496Z,76.40
2023-04-21T03:14:02.093Z,77.10
2023-04-21T03:16:29.740Z,76.60
2023-04-21T03:18:57.603Z,76.70
2023-04-21T03:21:25.425Z,76.70
2023-04-21T03:23:53.557Z,76.50
2023-04-21T03:26:21.365Z,74.80
2023-04-21T03:28:49.862Z,75.20
2023-04-21T03:31:17.449Z,74.60
2023-04-21T03:33:45.269Z,74.90
2023-04-21T03:36:12.826Z,75.50
2023-04-21T03:38:40.929Z,74.50
2023-04-21T03:41:08.498Z,76.60
2023-04-21T03:43:36.392Z,77.00
2023-04-21T03:46:04.031Z,76.90
2023-04-21T03:48:32.158Z,76.90
2023-04-21T03:50:59.791Z,76.80
2023-04-21T03:53:27.337Z,76.10
2023-04-21T03:55:54.864Z,75.70
2023-04-21T03:58:22.443Z,76.50
2023-04-21T04:00:49.992Z,75.40
2023-04-21T04:03:17.968Z,75.40
2023-04-21T04:05:46.754Z,74.90
2023-04-21T04:08:14.371Z,74.30
2023-04-21T04:10:42.027Z,74.50
2023-04-21T04:13:09.789Z,74.50
2023-04-21T04:15:37.419Z,74.40
2023-04-21T04:18:05.300Z,73.00
2023-04-21T04:20:33.290Z,73.10
2023-04-21T04:23:01.009Z,72.70
2023-04-21T04:25:28.605Z,71.60
2023-04-21T04:27:57.445Z,72.00
2023-04-21T04:30:28.039Z,72.00
2023-04-21T04:32:58.102Z,73.00
2023-04-21T04:35:25.754Z,73.10
2023-04-21T04:37:55.023Z,72.80
2023-04-21T04:40:22.772Z,73.00
2023-04-21T04:42:51.594Z,72.80
2023-04-21T04:45:22.302Z,72.60
2023-04-21T04:47:50.638Z,72.90
2023-04-21T04:50:18.461Z,72.00
2023-04-21T04:52:47.646Z,71.70
2023-04-21T04:55:15.405Z,72.00
2023-04-21T04:57:42.999Z,70.70
2023-04-21T05:00:11.886Z,68.40
2023-04-21T05:02:40.243Z,69.20
2023-04-21T05:05:08.531Z,69.30
2023-04-21T05:07:36.641Z,68.90
2023-04-21T05:10:04.777Z,68.90
2023-04-21T05:12:32.414Z,67.80
2023-04-21T05:14:59.968Z,67.00
2023-04-21T05:17:28.756Z,66.20
2023-04-21T05:19:56.980Z,66.10
2023-04-21T05:22:24.855Z,65.90
2023-04-21T05:24:53.143Z,65.70
2023-04-21T05:27:21.118Z,65.00
2023-04-21T05:29:49.002Z,64.90
2023-04-21T05:32:16.771Z,64.40
2023-04-21T05:34:44.457Z,64.20
2023-04-21T05:37:15.394Z,62.80
2023-04-21T05:39:43.053Z,64.00
2023-04-21T05:42:11.542Z,63.20
2023-04-21T05:44:40.046Z,63.80
2023-04-21T05:47:08.026Z,63.80
2023-04-21T05:49:35.595Z,63.40
2023-04-21T05:52:03.323Z,64.50
2023-04-21T05:54:31.103Z,63.00
2023-04-21T05:56:58.844Z,62.60
2023-04-21T05:59:26.665Z,62.90
2023-04-21T06:01:54.475Z,63.10
2023-04-21T06:04:22.426Z,62.90
2023-04-21T06:06:50.470Z,62.90
2023-04-21T06:09:18.044Z,63.60
2023-04-21T06:11:45.765Z,62.70
2023-04-21T06:14:13.667Z,61.90
2023-04-21T06:16:41.705Z,62.20
2023-04-21T06:19:09.347Z,62.50
2023-04-21T06:21:36.955Z,61.10
2023-04-21T06:24:04.785Z,64.10
2023-04-21T06:26:32.693Z,62.10
2023-04-21T06:29:00.412Z,62.20
2023-04-21T06:31:28.072Z,62.60
2023-04-21T06:33:55.620Z,62.60
2023-04-21T06:36:23.281Z,63.70
2023-04-21T06:38:50.808Z,63.00
2023-04-21T06:41:18.504Z,62.60
2023-04-21T06:43:46.211Z,63.20
2023-04-21T06:46:14.490Z,62.00
2023-04-21T06:48:42.038Z,63.00
2023-04-21T06:51:09.610Z,62.60
2023-04-21T06:53:38.425Z,62.20
2023-04-21T06:56:06.239Z,62.90
2023-04-21T06:58:33.881Z,62.50
2023-04-21T07:01:02.164Z,62.30
2023-04-21T07:03:29.812Z,63.20
2023-04-21T07:05:57.486Z,63.90
2023-04-21T07:08:25.765Z,62.00
2023-04-21T07:10:53.357Z,63.60
2023-04-21T07:13:21.038Z,62.60
2023-04-21T07:15:48.915Z,62.20
2023-04-21T07:18:16.504Z,62.20
2023-04-21T07:20:45.234Z,63.10
2023-04-21T07:23:12.903Z,64.50
2023-04-21T07:25:40.525Z,63.50
2023-04-21T07:28:08.406Z,61.90
2023-04-21T07:30:35.965Z,62.30
2023-04-21T07:33:03.598Z,63.30
2023-04-21T07:35:31.139Z,64.00
2023-04-21T07:37:58.836Z,62.40
2023-04-21T07:40:26.575Z,64.00
2023-04-21T07:42:54.238Z,62.80
2023-04-21T07:45:21.784Z,63.10
2023-04-21T07:47:49.628Z,66.10
2023-04-21T07:50:17.237Z,65.60
2023-04-21T07:52:44.803Z,64.70
2023-04-21T07:55:12.413Z,63.70
2023-04-21T07:57:40.639Z,62.70
2023-04-21T08:00:09.515Z,62.90
2023-04-21T08:02:40.289Z,63.60
2023-04-21T08:05:08.872Z,67.00
2023-04-21T08:07:36.991Z,65.30
2023-04-21T08:10:05.615Z,65.80
2023-04-21T08:12:33.200Z,64.90
2023-04-21T08:15:05.857Z,63.30
2023-04-21T08:17:34.164Z,65.20
2023-04-21T08:20:02.306Z,63.90
2023-04-21T08:22:29.972Z,60.80
2023-04-21T08:24:57.994Z,62.20
2023-04-21T08:27:25.609Z,61.30
2023-04-21T08:29:53.662Z,61.60
2023-04-21T08:32:24.563Z,61.00
2023-04-21T08:34:53.865Z,60.90
2023-04-21T08:37:22.159Z,62.60
2023-04-21T08:39:53.756Z,58.90
2023-04-21T08:42:21.375Z,62.00
2023-04-21T08:44:49.185Z,59.90
2023-04-21T08:47:16.775Z,60.90
2023-04-21T08:49:47.262Z,58.50
2023-04-21T08:52:14.875Z,61.30
2023-04-21T08:54:43.132Z,60.60
2023-04-21T08:57:15.474Z,58.80
2023-04-21T08:59:44.906Z,60.80
2023-04-21T09:02:20.055Z,59.40
2023-04-21T09:04:52.411Z,59.40
2023-04-21T09:07:34.882Z,60.50
2023-04-21T09:10:03.459Z,60.30
2023-04-21T09:12:31.602Z,59.50
2023-04-21T09:15:00.997Z,61.30
2023-04-21T09:17:34.045Z,58.30
2023-04-21T09:20:20.147Z,58.70
2023-04-21T09:22:51.476Z,57.50
2023-04-21T09:25:22.955Z,58.60
2023-04-21T09:27:51.449Z,58.30
2023-04-21T09:30:20.215Z,58.30
2023-04-21T09:32:47.924Z,58.70
2023-04-21T09:35:15.795Z,58.70
2023-04-21T09:37:46.600Z,60.40
2023-04-21T09:40:18.407Z,60.60
2023-04-21T09:42:46.596Z,60.80
2023-04-21T09:47:49.520Z,60.70
2023-04-21T09:50:26.746Z,60.50
2023-04-21T09:53:11.540Z,59.30
2023-04-21T09:55:41.756Z,61.30
2023-04-21T09:58:13.429Z,60.30
2023-04-21T10:00:41.157Z,61.40
2023-04-21T10:03:12.505Z,63.00
2023-04-21T10:05:42.796Z,61.20
2023-04-21T10:08:12.712Z,59.50
2023-04-21T10:10:40.731Z,60.20
2023-04-21T10:13:14.781Z,61.30
2023-04-21T10:15:42.756Z,60.80
2023-04-21T10:18:22.035Z,57.10
2023-04-21T10:21:10.017Z,59.20
2023-04-21T10:23:42.231Z,58.30
2023-04-21T10:26:16.850Z,57.40
2023-04-21T10:28:46.033Z,58.90
2023-04-21T10:31:21.167Z,58.30
2023-04-21T10:34:09.897Z,59.50
2023-04-21T10:36:49.488Z,58.30
2023-04-21T10:39:26.644Z,56.90
2023-04-21T10:41:58.821Z,60.20
2023-04-21T10:44:28.792Z,60.60
2023-04-21T10:46:59.086Z,59.10
2023-04-21T10:49:27.717Z,59.70
2023-04-21T10:52:02.587Z,59.40
2023-04-21T10:54:37.269Z,57.50
2023-04-21T10:57:08.214Z,59.10
2023-04-21T10:59:36.572Z,58.10
2023-04-21T11:02:07.679Z,58.30
2023-04-21T11:04:35.949Z,56.90
2023-04-21T11:07:12.540Z,55.90
2023-04-21T11:09:41.697Z,57.10
2023-04-21T11:12:11.577Z,56.20
2023-04-21T11:14:41.624Z,53.50
2023-04-21T11:17:20.843Z,56.40
2023-04-21T11:19:54.393Z,53.80
2023-04-21T11:22:26.529Z,56.60
2023-04-21T11:24:56.252Z,55.40
2023-04-21T11:27:26.369Z,58.40
2023-04-21T11:29:54.140Z,56.30
2023-04-21T11:32:22.025Z,54.60
2023-04-21T11:34:50.365Z,57.60
2023-04-21T11:37:30.321Z,57.50
2023-04-21T11:39:59.763Z,55.80
2023-04-21T11:42:28.342Z,57.70
2023-04-21T11:44:56.825Z,57.60
2023-04-21T11:47:26.805Z,56.30
2023-04-21T11:50:01.990Z,53.80
2023-04-21T11:52:35.683Z,54.80
2023-04-21T11:55:06.276Z,54.10
2023-04-21T11:57:34.370Z,56.00
2023-04-21T12:00:04.082Z,55.30
2023-04-21T12:02:33.885Z,55.40
2023-04-21T12:05:06.321Z,55.70
2023-04-21T12:07:36.290Z,55.90
2023-04-21T12:10:14.686Z,55.10
2023-04-21T12:12:43.239Z,55.60
2023-04-21T12:15:13.310Z,56.20
2023-04-21T12:17:49.136Z,56.50
2023-04-21T12:20:18.713Z,56.50
2023-04-21T12:22:46.900Z,55.80
2023-04-21T12:25:15.328Z,54.60
2023-04-21T12:27:53.478Z,54.20
2023-04-21T12:30:21.982Z,54.40
2023-04-21T12:32:50.035Z,56.10
2023-04-21T12:35:17.936Z,54.80
2023-04-21T12:37:45.712Z,54.90
2023-04-21T12:40:13.482Z,56.20
2023-04-21T12:42:41.157Z,54.90
2023-04-21T12:45:09.101Z,57.30
2023-04-21T12:47:37.682Z,57.10
2023-04-21T12:50:05.992Z,58.00
2023-04-21T12:52:33.721Z,52.90
2023-04-21T12:55:01.298Z,56.30
2023-04-21T12:57:29.014Z,54.20
2023-04-21T12:59:56.778Z,54.10
2023-04-21T13:02:24.533Z,52.40
2023-04-21T13:04:52.298Z,53.10
2023-04-21T13:07:22.193Z,54.30
2023-04-21T13:09:49.780Z,54.20
2023-04-21T13:12:17.449Z,53.90
2023-04-21T13:14:45.095Z,54.50
2023-04-21T13:17:13.608Z,53.40
2023-04-21T13:19:41.386Z,53.40
2023-04-21T13:22:08.971Z,54.50
2023-04-21T13:24:36.573Z,54.60
2023-04-21T13:27:04.338Z,54.60
2023-04-21T13:29:34.559Z,55.40
2023-04-21T13:32:04.747Z,54.90
2023-04-21T13:34:33.813Z,55.20
2023-04-21T13:37:02.191Z,55.30
2023-04-21T13:39:30.170Z,56.60
2023-04-21T13:41:58.112Z,54.60
2023-04-21T13:44:25.916Z,54.20
2023-04-21T13:46:54.134Z,54.70
2023-04-21T13:49:21.808Z,55.00
2023-04-21T13:51:49.417Z,54.90
2023-04-21T13:54:17.089Z,55.90
2023-04-21T13:56:44.758Z,55.50
2023-04-21T13:59:15.042Z,55.70
2023-04-21T14:01:42.925Z,55.90
2023-04-21T14:04:10.938Z,55.20
2023-04-21T14:06:38.782Z,56.20
2023-04-21T14:09:06.562Z,53.90
2023-04-21T14:11:34.267Z,54.40
2023-04-21T14:14:09.412Z,54.70
2023-04-21T14:16:38.737Z,54.10
2023-04-21T14:19:06.883Z,54.50
2023-04-21T14:21:34.889Z,54.80
2023-04-21T14:24:02.624Z,55.00
2023-04-21T14:26:30.365Z,55.50
2023-04-21T14:28:59.670Z,55.00
2023-04-21T14:31:28.045Z,54.80
2023-04-21T14:33:56.065Z,56.90
2023-04-21T14:36:23.862Z,56.70
2023-04-21T14:38:51.549Z,53.10
2023-04-21T14:41:19.161Z,53.60
2023-04-21T14:43:48.421Z,53.60
2023-04-21T14:46:17.725Z,55.60
2023-04-21T14:48:45.633Z,57.30
2023-04-21T14:51:13.248Z,57.40
2023-04-21T14:53:41.163Z,55.40
2023-04-21T14:56:09.015Z,55.80
2023-04-21T14:58:36.654Z,55.20
2023-04-21T15:01:04.602Z,55.90
2023-04-21T15:03:32.331Z,55.40
2023-04-21T15:06:00.245Z,56.40
2023-04-21T15:08:28.044Z,56.20
2023-04-21T15:10:56.419Z,57.00
2023-04-21T15:13:24.095Z,58.30
2023-04-21T15:15:52.248Z,55.80
2023-04-21T15:18:21.081Z,56.00
2023-04-21T15:20:48.763Z,55.20
2023-04-21T15:23:16.629Z,55.10
2023-04-21T15:25:44.246Z,54.90
2023-04-21T15:28:13.194Z,56.20
2023-04-21T15:30:40.839Z,56.00
2023-04-21T15:33:08.577Z,55.40
2023-04-21T15:35:36.477Z,55.80
2023-04-21T15:38:05.141Z,56.00
2023-04-21T15:40:32.942Z,55.10
2023-04-21T15:43:00.561Z,55.40
2023-04-21T15:45:29.258Z,55.60
2023-04-21T15:47:56.835Z,53.50
2023-04-21T15:50:24.460Z,54.80
2023-04-21T15:52:51.969Z,53.30
2023-04-21T15:55:20.047Z,53.70
2023-04-21T15:57:47.646Z,54.00
2023-04-21T16:00:15.705Z,53.00
2023-04-21T16:02:43.427Z,53.40
2023-04-21T16:05:11.227Z,55.10
2023-04-21T16:07:39.072Z,55.40
2023-04-21T16:10:07.372Z,54.40
2023-04-21T16:12:34.928Z,56.00
2023-04-21T16:15:20.016Z,56.90
2023-04-21T16:17:50.574Z,56.50
2023-04-21T16:20:18.468Z,55.80
2023-04-21T16:22:46.214Z,56.20
2023-04-21T16:25:17.889Z,56.90
2023-04-21T16:27:45.774Z,56.20
2023-04-21T16:30:13.442Z,56.80
2023-04-21T16:32:41.140Z,57.80
2023-04-21T16:35:09.371Z,58.20
2023-04-21T16:37:40.128Z,58.60
2023-04-21T16:40:09.737Z,59.10
2023-04-21T16:42:38.259Z,60.70
2023-04-21T16:45:06.670Z,61.90
2023-04-21T16:47:41.255Z,62.10
2023-04-21T16:50:10.317Z,63.20
2023-04-21T16:52:38.095Z,61.80
2023-04-21T16:55:06.175Z,62.50
2023-04-21T16:57:34.133Z,62.60
2023-04-21T17:00:05.635Z,61.60
2023-04-21T17:02:34.386Z,61.70
2023-04-21T17:05:02.348Z,60.80
2023-04-21T17:07:31.513Z,61.60
2023-04-21T17:09:59.183Z,61.20
2023-04-21T17:12:26.836Z,61.40
2023-04-21T17:14:54.435Z,61.70
2023-04-21T17:17:22.266Z,60.90
2023-04-21T17:19:50.166Z,61.40
2023-04-21T17:22:17.814Z,60.20
2023-04-21T17:24:53.198Z,61.20
2023-04-21T17:27:22.039Z,60.90
2023-04-21T17:29:49.595Z,61.00
2023-04-21T17:32:17.317Z,61.30
2023-04-21T17:34:44.896Z,61.80
2023-04-21T17:37:13.096Z,61.80
2023-04-21T17:39:40.728Z,62.00
2023-04-21T17:42:08.313Z,62.90
2023-04-21T17:44:36.139Z,62.60
2023-04-21T17:47:08.555Z,62.60
2023-04-21T17:49:37.000Z,63.20
2023-04-21T17:52:05.904Z,63.50
2023-04-21T17:54:33.889Z,63.60
2023-04-21T17:57:02.123Z,64.30
2023-04-21T17:59:30.648Z,64.60
2023-04-21T18:01:59.110Z,64.50
2023-04-21T18:04:29.874Z,64.20
2023-04-21T18:06:59.089Z,64.50
2023-04-21T18:09:27.331Z,64.00
2023-04-21T18:11:55.044Z,64.40
2023-04-21T18:14:23.417Z,64.90
2023-04-21T18:16:51.203Z,64.50
2023-04-21T18:19:19.505Z,65.00
2023-04-21T18:21:47.879Z,65.60
2023-04-21T18:24:15.905Z,65.90
2023-04-21T18:26:44.018Z,65.90
2023-04-21T18:29:11.814Z,66.20
2023-04-21T18:31:39.882Z,66.30
2023-04-21T18:34:08.778Z,66.70
2023-04-21T18:36:38.514Z,67.50
2023-04-21T18:39:06.629Z,66.70
2023-04-21T18:41:34.489Z,66.80
2023-04-21T18:44:02.352Z,67.60
2023-04-21T18:46:30.357Z,67.20
2023-04-21T18:49:00.602Z,66.30
2023-04-21T18:51:31.557Z,66.10
2023-04-21T18:53:59.476Z,66.40
2023-04-21T18:56:27.484Z,66.90
2023-04-21T18:58:55.394Z,67.30
2023-04-21T19:01:28.941Z,67.70
2023-04-21T19:03:58.842Z,67.50
2023-04-21T19:06:28.070Z,67.50
2023-04-21T19:08:57.109Z,67.40
2023-04-21T19:11:25.309Z,67.80
2023-04-21T19:13:53.679Z,68.10
2023-04-21T19:16:21.503Z,67.50
2023-04-21T19:18:49.446Z,68.30
2023-04-21T19:21:17.422Z,68.60
2023-04-21T19:23:45.355Z,69.20
2023-04-21T19:26:13.725Z,69.30
2023-04-21T19:28:41.928Z,70.10
2023-04-21T19:31:10.639Z,70.00
2023-04-21T19:33:44.641Z,70.50
2023-04-21T19:36:13.156Z,70.50
2023-04-21T19:38:41.481Z,70.10
2023-04-21T19:41:12.294Z,69.70
2023-04-21T19:43:40.165Z,69.90
2023-04-21T19:46:08.937Z,70.50
2023-04-21T19:48:37.276Z,69.70
2023-04-21T19:51:05.172Z,69.70
2023-04-21T19:53:33.698Z,70.00
2023-04-21T19:56:02.805Z,70.40
2023-04-21T19:58:40.384Z,70.00
2023-04-21T20:01:09.542Z,70.10
2023-04-21T20:03:38.152Z,69.00
2023-04-21T20:06:06.975Z,68.80
2023-04-21T20:08:35.964Z,69.30
2023-04-21T20:11:03.564Z,68.80
2023-04-21T20:13:31.335Z,68.70
2023-04-21T20:15:59.825Z,69.10
2023-04-21T20:18:28.211Z,68.60
2023-04-21T20:20:56.150Z,68.60
2023-04-21T20:23:24.147Z,68.60
2023-04-21T20:25:52.165Z,68.60
2023-04-21T20:28:20.551Z,68.60
2023-04-21T20:30:51.916Z,68.40
2023-04-21T20:33:21.334Z,68.50
2023-04-21T20:35:49.490Z,68.80
2023-04-21T20:38:17.840Z,69.10
2023-04-21T20:40:50.137Z,69.00
2023-04-21T20:43:18.962Z,69.00
2023-04-21T20:45:47.554Z,68.90
2023-04-21T20:48:15.845Z,68.80
2023-04-21T20:50:45.747Z,69.10
2023-04-21T20:53:14.070Z,69.00
2023-04-21T20:55:41.977Z,68.90
2023-04-21T20:58:09.882Z,68.90
2023-04-21T21:00:37.531Z,68.90
2023-04-21T21:03:09.947Z,68.60
2023-04-21T21:05:38.434Z,69.90
2023-04-21T21:08:07.216Z,69.70
2023-04-21T21:10:35.724Z,70.50
2023-04-21T21:13:03.815Z,72.10
2023-04-21T21:15:31.394Z,73.50
2023-04-21T21:17:59.151Z,75.70
2023-04-21T21:20:26.998Z,74.50
2023-04-21T21:22:54.659Z,75.10
2023-04-21T21:25:22.339Z,74.60
2023-04-21T21:27:50.187Z,74.70
2023-04-21T21:30:18.025Z,76.00
2023-04-21T21:32:45.916Z,76.50
2023-04-21T21:35:13.659Z,77.10
2023-04-21T21:37:41.266Z,75.80
2023-04-21T21:40:09.804Z,76.40
2023-04-21T21:42:39.191Z,74.30
2023-04-21T21:45:07.685Z,75.90
2023-04-21T21:47:38.356Z,73.90
2023-04-21T21:50:09.429Z,74.60
2023-04-21T21:52:37.154Z,74.80
2023-04-21T21:55:05.444Z,75.10
2023-04-21T21:57:33.306Z,75.50
2023-04-21T22:00:01.998Z,76.60
2023-04-21T22:02:32.749Z,77.40
2023-04-21T22:05:00.831Z,77.50
2023-04-21T22:07:29.454Z,76.60
2023-04-21T22:09:59.760Z,77.00
2023-04-21T22:12:27.565Z,77.50
2023-04-21T22:14:55.235Z,79.30
2023-04-21T22:17:22.793Z,79.00
2023-04-21T22:19:50.540Z,78.90
2023-04-21T22:22:18.360Z,78.50
2023-04-21T22:24:46.569Z,78.40
2023-04-21T22:27:14.254Z,77.20
2023-04-21T22:29:41.988Z,77.20
2023-04-21T22:32:10.373Z,76.80
2023-04-21T22:34:37.967Z,75.90
2023-04-21T22:37:05.797Z,74.50
2023-04-21T22:39:33.411Z,74.30
2023-04-21T22:42:01.248Z,74.60
2023-04-21T22:44:28.809Z,73.80
2023-04-21T22:49:24.827Z,72.40
2023-04-21T22:51:54.524Z,73.70
2023-04-21T22:54:22.064Z,69.10
2023-04-21T22:56:49.724Z,69.90
2023-04-21T22:59:17.478Z,68.70
2023-04-21T23:01:45.051Z,68.00
2023-04-21T23:04:13.034Z,68.00
2023-04-21T23:06:40.811Z,67.10
2023-04-21T23:09:08.469Z,71.70
2023-04-21T23:11:36.512Z,71.70
2023-04-21T23:14:04.082Z,69.50
2023-04-21T23:16:32.050Z,68.50
2023-04-21T23:18:59.762Z,68.70
2023-04-21T23:21:27.382Z,69.10
2023-04-21T23:23:54.956Z,72.50
2023-04-21T23:26:22.700Z,71.70
2023-04-21T23:28:50.293Z,71.80
2023-04-21T23:31:18.096Z,73.70
2023-04-21T23:33:45.826Z,73.20
2023-04-21T23:36:13.420Z,71.90
2023-04-21T23:38:40.995Z,72.30
2023-04-21T23:41:08.572Z,72.30
2023-04-21T23:43:37.548Z,73.60
2023-04-21T23:46:05.215Z,74.00
2023-04-21T23:48:32.836Z,74.30
2023-04-21T23:51:01.182Z,71.90
2023-04-21T23:53:28.891Z,71.70
2023-04-21T23:55:56.554Z,72.20
2023-04-21T23:58:24.202Z,73.60
